createdAt,value
2022-09-03T00:02:03.734Z,1.90
2022-09-03T00:04:57.259Z,1.88
2022-09-03T00:07:47.123Z,2.00
2022-09-03T00:10:28.595Z,1.83
2022-09-03T00:13:00.647Z,1.60
2022-09-03T00:15:29.387Z,1.80
2022-09-03T00:18:10.955Z,1.80
2022-09-03T00:20:54.047Z,1.80
2022-09-03T00:23:28.423Z,1.92
2022-09-03T00:26:01.422Z,1.80
2022-09-03T00:28:38.914Z,1.88
2022-09-03T00:31:19.597Z,1.95
2022-09-03T00:33:51.786Z,1.70
2022-09-03T00:36:31.965Z,1.77
2022-09-03T00:38:59.352Z,1.73
2022-09-03T00:41:41.455Z,1.83
2022-09-03T00:44:26.826Z,1.67
2022-09-03T00:47:09.293Z,1.65
2022-09-03T00:50:00.203Z,1.70
2022-09-03T00:52:46.286Z,1.83
2022-09-03T00:55:22.415Z,1.75
2022-09-03T00:58:05.863Z,1.70
2022-09-03T01:00:33.134Z,1.80
2022-09-03T01:03:26.842Z,1.73
2022-09-03T01:06:26.172Z,1.88
2022-09-03T01:09:12.085Z,1.50
2022-09-03T01:12:06.698Z,1.50
2022-09-03T01:14:58.802Z,1.60
2022-09-03T01:17:34.905Z,1.60
2022-09-03T01:20:14.711Z,1.50
2022-09-03T01:22:50.770Z,1.65
2022-09-03T01:25:49.492Z,1.40
2022-09-03T01:28:25.894Z,1.52
2022-09-03T01:31:11.256Z,1.45
2022-09-03T01:33:50.346Z,1.77
2022-09-03T01:36:25.110Z,1.50
2022-09-03T01:38:58.253Z,1.60
2022-09-03T01:41:56.029Z,1.50
2022-09-03T01:44:42.089Z,1.50
2022-09-03T01:47:32.706Z,1.63
2022-09-03T01:50:34.072Z,1.40
2022-09-03T01:53:10.131Z,1.80
2022-09-03T01:56:06.007Z,1.77
2022-09-03T01:58:39.049Z,1.60
2022-09-03T02:01:14.829Z,1.50
2022-09-03T02:03:46.957Z,1.65
2022-09-03T02:06:15.666Z,1.70
2022-09-03T02:08:42.865Z,1.70
2022-09-03T02:11:10.506Z,1.60
2022-09-03T02:13:37.613Z,1.73
2022-09-03T02:16:14.007Z,1.93
2022-09-03T02:18:46.413Z,1.60
2022-09-03T02:21:20.017Z,1.80
2022-09-03T02:23:50.456Z,1.90
2022-09-03T02:26:22.779Z,1.60
2022-09-03T02:28:50.840Z,1.70
2022-09-03T02:31:18.204Z,1.60
2022-09-03T02:33:47.657Z,1.83
2022-09-03T02:36:19.191Z,1.70
2022-09-03T02:38:47.409Z,1.60
2022-09-03T02:41:15.096Z,1.65
2022-09-03T02:43:46.060Z,1.50
2022-09-03T02:46:21.153Z,1.60
2022-09-03T02:48:48.964Z,1.57
2022-09-03T02:51:16.149Z,1.70
2022-09-03T02:53:43.783Z,1.60
2022-09-03T02:56:11.344Z,1.70
2022-09-03T02:58:39.070Z,1.92
2022-09-03T03:01:06.383Z,1.85
2022-09-03T03:03:33.998Z,1.80
2022-09-03T03:06:05.246Z,1.70
2022-09-03T03:08:34.736Z,1.70
2022-09-03T03:11:02.012Z,1.55
2022-09-03T03:13:31.301Z,1.80
2022-09-03T03:16:00.007Z,1.70
2022-09-03T03:18:30.452Z,1.77
2022-09-03T03:20:58.003Z,1.73
2022-09-03T03:23:25.170Z,1.50
2022-09-03T03:25:52.339Z,1.70
2022-09-03T03:28:20.235Z,1.67
2022-09-03T03:30:48.571Z,1.65
2022-09-03T03:33:15.886Z,1.70
2022-09-03T03:35:43.049Z,1.77
2022-09-03T03:38:10.595Z,1.60
2022-09-03T03:40:38.935Z,1.70
2022-09-03T03:43:06.258Z,1.58
2022-09-03T03:45:33.528Z,1.60
2022-09-03T03:48:00.721Z,1.65
2022-09-03T03:50:28.288Z,1.60
2022-09-03T03:52:58.849Z,1.85
2022-09-03T03:55:26.991Z,1.60
2022-09-03T03:57:54.395Z,1.90
2022-09-03T04:00:21.592Z,1.50
2022-09-03T04:02:52.525Z,1.65
2022-09-03T04:05:23.254Z,1.70
2022-09-03T04:07:51.222Z,1.70
2022-09-03T04:10:18.343Z,1.80
2022-09-03T04:12:45.490Z,1.58
2022-09-03T04:15:12.751Z,1.67
2022-09-03T04:17:39.899Z,1.70
2022-09-03T04:20:07.240Z,1.58
2022-09-03T04:22:34.490Z,1.98
2022-09-03T04:25:01.715Z,1.65
2022-09-03T04:27:28.853Z,1.85
2022-09-03T04:29:55.985Z,1.80
2022-09-03T04:32:42.409Z,1.63
2022-09-03T04:35:09.882Z,1.80
2022-09-03T04:37:37.502Z,1.77
2022-09-03T04:40:05.181Z,1.53
2022-09-03T04:42:32.373Z,1.60
2022-09-03T04:44:59.575Z,1.95
2022-09-03T04:47:28.103Z,1.58
2022-09-03T04:49:55.414Z,1.75
2022-09-03T04:52:22.756Z,1.70
2022-09-03T04:54:50.452Z,1.60
2022-09-03T04:57:17.749Z,1.67
2022-09-03T04:59:45.005Z,1.70
2022-09-03T05:02:14.314Z,1.65
2022-09-03T05:04:42.384Z,1.50
2022-09-03T05:07:09.972Z,1.80
2022-09-03T05:09:37.194Z,1.60
2022-09-03T05:12:04.488Z,1.63
2022-09-03T05:14:31.686Z,1.50
2022-09-03T05:16:58.893Z,1.52
2022-09-03T05:19:26.591Z,1.70
2022-09-03T05:21:53.732Z,1.70
2022-09-03T05:24:20.897Z,1.42
2022-09-03T05:26:48.842Z,1.65
2022-09-03T05:29:16.059Z,1.60
2022-09-03T05:31:43.285Z,1.50
2022-09-03T05:34:16.345Z,1.70
2022-09-03T05:36:44.151Z,1.80
2022-09-03T05:39:11.318Z,1.60
2022-09-03T05:41:38.484Z,1.40
2022-09-03T05:44:06.097Z,1.50
2022-09-03T05:46:34.206Z,1.50
2022-09-03T05:49:02.833Z,1.40
2022-09-03T05:51:30.748Z,1.63
2022-09-03T05:53:58.642Z,1.60
2022-09-03T05:56:28.099Z,1.58
2022-09-03T05:58:57.850Z,1.50
2022-09-03T06:01:31.151Z,1.50
2022-09-03T06:04:10.421Z,1.80
2022-09-03T06:06:40.709Z,1.70
2022-09-03T06:09:11.138Z,1.65
2022-09-03T06:11:39.624Z,1.52
2022-09-03T06:14:09.246Z,1.63
2022-09-03T06:16:39.130Z,1.70
2022-09-03T06:19:09.710Z,1.67
2022-09-03T06:21:42.628Z,1.48
2022-09-03T06:24:19.208Z,1.52
2022-09-03T06:26:48.008Z,1.73
2022-09-03T06:29:16.029Z,1.42
2022-09-03T06:31:43.315Z,1.60
2022-09-03T06:34:10.581Z,1.50
2022-09-03T06:36:41.258Z,1.65
2022-09-03T06:39:08.498Z,1.50
2022-09-03T06:41:35.806Z,1.60
2022-09-03T06:44:05.911Z,1.48
2022-09-03T06:46:38.955Z,1.50
2022-09-03T06:49:06.351Z,1.70
2022-09-03T06:51:33.638Z,1.52
2022-09-03T06:54:11.504Z,1.70
2022-09-03T06:56:41.114Z,1.50
2022-09-03T06:59:14.702Z,1.58
2022-09-03T07:01:45.329Z,1.70
2022-09-03T07:04:16.395Z,1.50
2022-09-03T07:06:45.233Z,1.60
2022-09-03T07:09:13.343Z,1.60
2022-09-03T07:11:46.890Z,1.70
2022-09-03T07:14:15.609Z,1.60
2022-09-03T07:16:43.696Z,1.65
2022-09-03T07:19:12.013Z,1.60
2022-09-03T07:21:45.095Z,1.73
2022-09-03T07:24:15.487Z,1.60
2022-09-03T07:26:47.066Z,1.60
2022-09-03T07:29:16.465Z,1.40
2022-09-03T07:31:44.244Z,1.80
2022-09-03T07:34:13.360Z,1.67
2022-09-03T07:36:50.959Z,1.50
2022-09-03T07:39:18.874Z,1.73
2022-09-03T07:41:46.709Z,1.85
2022-09-03T07:44:16.087Z,1.65
2022-09-03T07:46:45.479Z,1.45
2022-09-03T07:49:13.463Z,1.73
2022-09-03T07:51:40.691Z,1.50
2022-09-03T07:54:10.776Z,1.45
2022-09-03T07:56:39.731Z,1.70
2022-09-03T07:59:07.934Z,1.83
2022-09-03T08:01:38.430Z,1.60
2022-09-03T08:04:09.876Z,1.50
2022-09-03T08:06:38.399Z,1.60
2022-09-03T08:09:08.296Z,1.50
2022-09-03T08:11:40.649Z,1.50
2022-09-03T08:14:10.188Z,1.45
2022-09-03T08:16:41.661Z,1.55
2022-09-03T08:19:09.122Z,1.70
2022-09-03T08:21:36.299Z,1.45
2022-09-03T08:24:03.795Z,1.60
2022-09-03T08:26:36.065Z,1.55
2022-09-03T08:29:04.451Z,1.52
2022-09-03T08:31:32.387Z,1.40
2022-09-03T08:34:06.562Z,1.50
2022-09-03T08:36:36.512Z,1.60
2022-09-03T08:39:09.459Z,1.92
2022-09-03T08:42:05.149Z,1.75
2022-09-03T08:44:38.065Z,1.70
2022-09-03T08:47:32.343Z,1.50
2022-09-03T08:50:18.085Z,1.50
2022-09-03T08:52:55.936Z,1.40
2022-09-03T08:55:27.704Z,1.60
2022-09-03T08:58:04.999Z,1.75
2022-09-03T09:00:40.598Z,1.60
2022-09-03T09:03:34.761Z,1.75
2022-09-03T09:06:14.674Z,1.55
2022-09-03T09:09:07.597Z,2.00
2022-09-03T09:11:50.570Z,2.00
2022-09-03T09:14:25.971Z,1.92
2022-09-03T09:17:08.985Z,2.03
2022-09-03T09:19:43.261Z,2.33
2022-09-03T09:22:26.347Z,2.80
2022-09-03T09:24:56.060Z,3.30
2022-09-03T09:27:24.743Z,3.42
2022-09-03T09:29:53.489Z,3.10
2022-09-03T09:32:21.551Z,3.45
2022-09-03T09:34:52.262Z,3.78
2022-09-03T09:37:20.645Z,3.75
2022-09-03T09:39:56.956Z,3.47
2022-09-03T09:42:25.256Z,3.50
2022-09-03T09:44:52.720Z,3.65
2022-09-03T09:47:33.828Z,4.03
2022-09-03T09:50:03.455Z,4.03
2022-09-03T09:52:31.439Z,3.35
2022-09-03T09:55:11.147Z,3.25
2022-09-03T09:57:41.131Z,4.57
2022-09-03T10:00:15.782Z,4.30
2022-09-03T10:02:56.413Z,3.50
2022-09-03T10:05:33.604Z,4.35
2022-09-03T10:08:06.538Z,3.75
2022-09-03T10:10:48.964Z,3.90
2022-09-03T10:13:21.942Z,4.07
2022-09-03T10:16:27.913Z,3.95
2022-09-03T10:19:09.861Z,4.75
2022-09-03T10:21:49.952Z,4.72
2022-09-03T10:24:52.181Z,5.47
2022-09-03T10:27:20.101Z,4.07
2022-09-03T10:29:47.391Z,4.40
2022-09-03T10:32:44.944Z,4.40
2022-09-03T10:35:31.946Z,4.75
2022-09-03T10:38:05.097Z,4.72
2022-09-03T10:40:42.553Z,4.25
2022-09-03T10:43:37.664Z,4.80
2022-09-03T10:46:24.338Z,3.83
2022-09-03T10:48:54.740Z,4.20
2022-09-03T10:52:15.604Z,4.53
2022-09-03T10:55:04.664Z,4.60
2022-09-03T10:57:56.854Z,4.78
2022-09-03T11:00:24.270Z,3.97
2022-09-03T11:02:58.732Z,4.82
2022-09-03T11:05:30.733Z,4.90
2022-09-03T11:08:07.510Z,4.07
2022-09-03T11:10:37.698Z,4.80
2022-09-03T11:13:25.047Z,4.20
2022-09-03T11:15:57.846Z,4.05
2022-09-03T11:18:33.739Z,3.47
2022-09-03T11:21:07.683Z,4.05
2022-09-03T11:23:42.288Z,4.47
2022-09-03T11:26:14.069Z,3.80
2022-09-03T11:29:14.429Z,4.00
2022-09-03T11:31:59.602Z,4.67
2022-09-03T11:34:46.290Z,4.78
2022-09-03T11:37:21.653Z,4.45
2022-09-03T11:40:11.979Z,4.22
2022-09-03T11:42:43.578Z,4.50
2022-09-03T11:45:30.049Z,4.13
2022-09-03T11:47:57.531Z,4.32
2022-09-03T11:50:29.072Z,4.17
2022-09-03T11:53:25.233Z,3.58
2022-09-03T11:56:07.674Z,3.90
2022-09-03T11:58:39.295Z,4.33
2022-09-03T12:01:16.093Z,4.78
2022-09-03T12:03:45.573Z,4.60
2022-09-03T12:06:34.683Z,4.32
2022-09-03T12:09:23.256Z,4.17
2022-09-03T12:12:11.287Z,4.28
2022-09-03T12:15:03.963Z,4.57
2022-09-03T12:17:34.534Z,4.70
2022-09-03T12:20:01.907Z,4.78
2022-09-03T12:22:31.124Z,4.60
2022-09-03T12:25:12.970Z,4.30
2022-09-03T12:27:43.574Z,4.40
2022-09-03T12:30:22.308Z,4.10
2022-09-03T12:32:51.371Z,3.77
2022-09-03T12:38:18.260Z,5.05
2022-09-03T12:43:42.410Z,4.82
2022-09-03T12:46:17.207Z,4.93
2022-09-03T12:51:54.732Z,4.25
2022-09-03T12:54:24.379Z,5.10
2022-09-03T12:56:59.563Z,4.47
2022-09-03T12:59:32.386Z,4.82
2022-09-03T13:02:06.577Z,5.10
2022-09-03T13:04:36.399Z,5.23
2022-09-03T13:07:27.462Z,4.80
2022-09-03T13:10:04.099Z,4.40
2022-09-03T13:12:53.655Z,4.00
2022-09-03T13:15:25.698Z,4.65
2022-09-03T13:18:11.549Z,4.25
2022-09-03T13:20:47.286Z,4.63
2022-09-03T13:23:37.624Z,4.90
2022-09-03T13:26:14.917Z,4.93
2022-09-03T13:28:47.989Z,4.13
2022-09-03T13:31:40.977Z,4.32
2022-09-03T13:34:39.998Z,4.65
2022-09-03T13:37:28.589Z,4.90
2022-09-03T13:40:19.605Z,4.40
2022-09-03T13:42:56.504Z,4.03
2022-09-03T13:45:28.255Z,4.27
2022-09-03T13:48:36.865Z,4.40
2022-09-03T13:51:29.737Z,4.57
2022-09-03T13:54:36.336Z,4.50
2022-09-03T13:57:34.309Z,4.47
2022-09-03T14:00:13.357Z,3.67
2022-09-03T14:02:52.651Z,4.63
2022-09-03T14:05:36.903Z,4.40
2022-09-03T14:08:28.246Z,4.55
2022-09-03T14:11:23.036Z,4.72
2022-09-03T14:14:13.693Z,4.35
2022-09-03T14:16:59.806Z,3.78
2022-09-03T14:19:55.122Z,4.20
2022-09-03T14:22:49.806Z,4.28
2022-09-03T14:25:20.219Z,4.38
2022-09-03T14:27:47.700Z,4.17
2022-09-03T14:30:55.771Z,4.05
2022-09-03T14:33:42.128Z,4.05
2022-09-03T14:36:18.623Z,4.00
2022-09-03T14:39:02.107Z,4.03
2022-09-03T14:41:37.515Z,4.38
2022-09-03T14:44:26.268Z,4.47
2022-09-03T14:47:07.918Z,4.32
2022-09-03T14:49:53.869Z,4.15
2022-09-03T14:52:59.440Z,4.35
2022-09-03T14:55:26.585Z,4.75
2022-09-03T14:58:24.606Z,4.60
2022-09-03T15:00:57.955Z,4.55
2022-09-03T15:03:53.208Z,4.05
2022-09-03T15:06:31.062Z,3.95
2022-09-03T15:09:15.172Z,4.00
2022-09-03T15:11:52.085Z,4.25
2022-09-03T15:14:38.701Z,4.25
2022-09-03T15:17:44.010Z,4.35
2022-09-03T15:20:42.925Z,4.15
2022-09-03T15:23:42.112Z,4.30
2022-09-03T15:26:15.162Z,4.20
2022-09-03T15:29:17.039Z,4.15
2022-09-03T15:32:11.616Z,3.47
2022-09-03T15:35:20.768Z,3.83
2022-09-03T15:37:54.768Z,4.00
2022-09-03T15:40:41.599Z,4.55
2022-09-03T15:43:38.463Z,4.10
2022-09-03T15:46:37.464Z,4.50
2022-09-03T15:49:19.281Z,4.50
2022-09-03T15:52:11.552Z,3.95
2022-09-03T15:54:49.396Z,3.67
2022-09-03T15:57:31.698Z,3.75
2022-09-03T16:00:21.768Z,3.63
2022-09-03T16:03:07.520Z,3.80
2022-09-03T16:05:49.314Z,4.38
2022-09-03T16:08:41.681Z,4.03
2022-09-03T16:11:23.334Z,4.80
2022-09-03T16:13:55.757Z,4.80
2022-09-03T16:17:01.453Z,4.55
2022-09-03T16:19:44.335Z,3.38
2022-09-03T16:22:37.927Z,3.75
2022-09-03T16:25:23.094Z,3.00
2022-09-03T16:28:18.950Z,3.95
2022-09-03T16:30:58.585Z,4.40
2022-09-03T16:33:34.163Z,4.03
2022-09-03T16:36:22.791Z,4.30
2022-09-03T16:38:55.530Z,4.13
2022-09-03T16:41:46.307Z,3.90
2022-09-03T16:44:25.956Z,3.33
2022-09-03T16:47:44.705Z,4.00
2022-09-03T16:50:29.523Z,3.20
2022-09-03T16:53:15.736Z,3.22
2022-09-03T16:56:27.054Z,3.15
2022-09-03T16:59:04.957Z,3.25
2022-09-03T17:02:37.228Z,3.10
2022-09-03T17:04:59.863Z,3.70
2022-09-03T17:08:11.596Z,3.17
2022-09-03T17:10:51.616Z,2.92
2022-09-03T17:13:37.649Z,3.28
2022-09-03T17:16:24.523Z,3.47
2022-09-03T17:19:14.455Z,2.83
2022-09-03T17:22:10.669Z,2.85
2022-09-03T17:25:01.445Z,3.20
2022-09-03T17:27:49.469Z,3.00
2022-09-03T17:30:43.823Z,2.75
2022-09-03T17:33:35.744Z,2.10
2022-09-03T17:36:15.161Z,2.80
2022-09-03T17:39:19.118Z,2.47
2022-09-03T17:42:03.498Z,2.92
2022-09-03T17:44:49.258Z,2.60
2022-09-03T17:47:28.363Z,2.60
2022-09-03T17:50:07.069Z,2.63
2022-09-03T17:52:44.868Z,2.40
2022-09-03T17:55:14.592Z,2.03
2022-09-03T17:57:48.502Z,2.05
2022-09-03T18:00:45.769Z,2.20
2022-09-03T18:03:22.389Z,2.05
2022-09-03T18:06:08.078Z,2.10
2022-09-03T18:08:58.917Z,2.28
2022-09-03T18:11:33.959Z,1.92
2022-09-03T18:14:20.572Z,2.25
2022-09-03T18:17:10.473Z,2.05
2022-09-03T18:20:02.102Z,1.90
2022-09-03T18:23:17.624Z,2.30
2022-09-03T18:26:09.607Z,1.98
2022-09-03T18:29:05.450Z,2.00
2022-09-03T18:31:51.625Z,1.90
2022-09-03T18:34:40.246Z,1.90
2022-09-03T18:37:26.746Z,2.00
2022-09-03T18:40:12.705Z,2.13
2022-09-03T18:43:24.079Z,2.20
2022-09-03T18:47:56.289Z,1.85
2022-09-03T18:49:58.564Z,2.00
2022-09-03T18:53:14.058Z,2.00
2022-09-03T18:56:24.466Z,2.08
2022-09-03T18:59:16.658Z,2.08
2022-09-03T19:02:02.788Z,1.90
2022-09-03T19:05:12.270Z,2.10
2022-09-03T19:08:11.547Z,1.80
2022-09-03T19:11:00.392Z,2.38
2022-09-03T19:13:58.092Z,2.28
2022-09-03T19:17:10.024Z,2.20
2022-09-03T19:20:15.326Z,2.05
2022-09-03T19:23:01.897Z,2.20
2022-09-03T19:25:49.431Z,2.15
2022-09-03T19:28:48.562Z,2.10
2022-09-03T19:32:03.954Z,2.05
2022-09-03T19:34:56.084Z,2.13
2022-09-03T19:37:48.377Z,1.83
2022-09-03T19:41:00.334Z,2.00
2022-09-03T19:44:17.001Z,2.05
2022-09-03T19:47:14.407Z,2.28
2022-09-03T19:50:09.476Z,6.18
2022-09-03T19:53:09.940Z,5.40
2022-09-03T19:56:05.178Z,4.07
2022-09-03T19:58:57.069Z,3.13
2022-09-03T20:01:48.153Z,2.50
2022-09-03T20:04:34.654Z,2.47
2022-09-03T20:07:23.510Z,2.60
2022-09-03T20:10:10.882Z,2.80
2022-09-03T20:12:43.088Z,2.28
2022-09-03T20:15:10.700Z,2.53
2022-09-03T20:17:56.121Z,2.53
2022-09-03T20:20:36.409Z,2.42
2022-09-03T20:23:12.772Z,2.20
2022-09-03T20:25:56.637Z,2.20
2022-09-03T20:28:52.395Z,2.63
2022-09-03T20:31:19.515Z,2.60
2022-09-03T20:34:05.436Z,2.20
2022-09-03T20:36:56.938Z,2.30
2022-09-03T20:39:47.388Z,2.70
2022-09-03T20:42:32.610Z,3.22
2022-09-03T20:45:06.455Z,3.58
2022-09-03T20:48:04.131Z,3.08
2022-09-03T20:50:56.407Z,2.70
2022-09-03T20:53:33.080Z,2.63
2022-09-03T20:56:29.658Z,2.30
2022-09-03T20:59:18.068Z,2.28
2022-09-03T21:02:15.147Z,2.88
2022-09-03T21:05:06.179Z,2.60
2022-09-03T21:07:40.714Z,2.80
2022-09-03T21:10:37.174Z,3.00
2022-09-03T21:13:42.019Z,2.70
2022-09-03T21:16:32.139Z,2.67
2022-09-03T21:19:03.061Z,2.30
2022-09-03T21:21:36.310Z,2.60
2022-09-03T21:24:31.372Z,2.50
2022-09-03T21:27:04.424Z,2.40
2022-09-03T21:29:57.246Z,2.63
2022-09-03T21:32:32.802Z,2.83
2022-09-03T21:35:46.897Z,2.60
2022-09-03T21:38:21.990Z,2.50
2022-09-03T21:41:00.718Z,2.50
2022-09-03T21:43:42.075Z,3.00
2022-09-03T21:46:37.548Z,2.30
2022-09-03T21:49:11.959Z,2.80
2022-09-03T21:51:47.198Z,2.50
2022-09-03T21:54:28.778Z,2.50
2022-09-03T21:57:12.221Z,2.53
2022-09-03T22:00:18.155Z,2.50
2022-09-03T22:02:49.843Z,2.25
2022-09-03T22:05:18.539Z,2.90
2022-09-03T22:08:12.104Z,2.60
2022-09-03T22:11:05.828Z,2.80
2022-09-03T22:13:40.969Z,2.70
2022-09-03T22:16:32.386Z,2.72
2022-09-03T22:18:59.590Z,2.70
2022-09-03T22:21:53.329Z,2.50
2022-09-03T22:24:44.744Z,2.22
2022-09-03T22:27:24.230Z,2.55
2022-09-03T22:30:11.697Z,2.30
2022-09-03T22:32:57.211Z,2.72
2022-09-03T22:35:27.406Z,2.70
2022-09-03T22:38:12.878Z,2.28
2022-09-03T22:40:59.409Z,2.50
2022-09-03T22:43:37.742Z,2.57
2022-09-03T22:46:19.316Z,2.73
2022-09-03T22:48:58.274Z,2.83
2022-09-03T22:51:31.588Z,3.00
2022-09-03T22:54:16.859Z,2.92
2022-09-03T22:56:44.321Z,3.20
2022-09-03T22:59:36.949Z,3.13
2022-09-03T23:02:10.151Z,2.67
2022-09-03T23:04:41.992Z,2.80
2022-09-03T23:07:52.588Z,2.53
2022-09-03T23:10:26.214Z,2.70
2022-09-03T23:13:13.967Z,2.70
2022-09-03T23:15:43.216Z,2.72
2022-09-03T23:18:17.601Z,3.20
2022-09-03T23:20:58.887Z,3.03
2022-09-03T23:23:34.267Z,2.80
2022-09-03T23:26:13.303Z,2.85
2022-09-03T23:28:49.135Z,2.80
2022-09-03T23:31:26.665Z,3.20
2022-09-03T23:33:54.894Z,2.80
2022-09-03T23:36:57.968Z,3.00
2022-09-03T23:39:47.864Z,3.38
2022-09-03T23:42:24.123Z,3.00
2022-09-03T23:45:10.152Z,2.90
2022-09-03T23:47:54.343Z,3.30
2022-09-03T23:50:46.605Z,3.10
2022-09-03T23:53:35.695Z,3.40
2022-09-03T23:56:29.220Z,3.20
2022-09-03T23:59:09.694Z,3.45
